Map

Track Data

SID SEASON NUMBER BASIN SUBBASIN NAME ISO_TIME NATURE LAT LON WMO_WIND WMO_PRES WMO_AGENCY TRACK_TYPE DIST2LAND LANDFALL IFLAG USA_AGENCY USA_ATCF_ID USA_LAT USA_LON USA_RECORD USA_STATUS USA_WIND USA_PRES USA_SSHS USA_R34_NE USA_R34_SE USA_R34_SW USA_R34_NW USA_R50_NE USA_R50_SE USA_R50_SW USA_R50_NW USA_R64_NE USA_R64_SE USA_R64_SW USA_R64_NW USA_POCI USA_ROCI USA_RMW USA_EYE TOKYO_LAT TOKYO_LON TOKYO_GRADE TOKYO_WIND TOKYO_PRES TOKYO_R50_DIR TOKYO_R50_LONG TOKYO_R50_SHORT TOKYO_R30_DIR TOKYO_R30_LONG TOKYO_R30_SHORT TOKYO_LAND CMA_LAT CMA_LON CMA_CAT CMA_WIND CMA_PRES HKO_LAT HKO_LON HKO_CAT HKO_WIND HKO_PRES NEWDELHI_LAT NEWDELHI_LON NEWDELHI_GRADE NEWDELHI_WIND NEWDELHI_PRES NEWDELHI_CI NEWDELHI_DP NEWDELHI_POCI REUNION_LAT REUNION_LON REUNION_TYPE REUNION_WIND REUNION_PRES REUNION_TNUM REUNION_CI REUNION_RMW REUNION_R34_NE REUNION_R34_SE REUNION_R34_SW REUNION_R34_NW REUNION_R50_NE REUNION_R50_SE REUNION_R50_SW REUNION_R50_NW REUNION_R64_NE REUNION_R64_SE REUNION_R64_SW REUNION_R64_NW BOM_LAT BOM_LON BOM_TYPE BOM_WIND BOM_PRES BOM_TNUM BOM_CI BOM_RMW BOM_R34_NE BOM_R34_SE BOM_R34_SW BOM_R34_NW BOM_R50_NE BOM_R50_SE BOM_R50_SW BOM_R50_NW BOM_R64_NE BOM_R64_SE BOM_R64_SW BOM_R64_NW BOM_ROCI BOM_POCI BOM_EYE BOM_POS_METHOD BOM_PRES_METHOD NADI_LAT NADI_LON NADI_CAT NADI_WIND NADI_PRES WELLINGTON_LAT WELLINGTON_LON WELLINGTON_WIND WELLINGTON_PRES DS824_LAT DS824_LON DS824_STAGE DS824_WIND DS824_PRES TD9636_LAT TD9636_LON TD9636_STAGE TD9636_WIND TD9636_PRES TD9635_LAT TD9635_LON TD9635_WIND TD9635_PRES TD9635_ROCI NEUMANN_LAT NEUMANN_LON NEUMANN_CLASS NEUMANN_WIND NEUMANN_PRES MLC_LAT MLC_LON MLC_CLASS MLC_WIND MLC_PRES USA_GUST BOM_GUST BOM_GUST_PER REUNION_GUST REUNION_GUST_PER USA_SEAHGT USA_SEARAD_NE USA_SEARAD_SE USA_SEARAD_SW USA_SEARAD_NW STORM_SPEED STORM_DIR
1975177N19087 1975 48 NI BB NOT_NAMED 1975-06-25 12:00:00 TS 18.5000 86.5000 main 162 148 O________OO___ jtwc_io IO081975 18.5000 86.5000 -1 18.5000 86.5000 TC 25 18.5000 86.5000 1 4 306
1975177N19087 1975 48 NI BB NOT_NAMED 1975-06-25 15:00:00 TS 18.6097 86.3463 main 144 130 P________PP___ IO081975 18.5950 86.3325 -1 18.5950 86.3325 TC 25 18.6392 86.3737 1 3 310
1975177N19087 1975 48 NI BB NOT_NAMED 1975-06-25 18:00:00 TS 18.7209 86.2193 main 130 115 O________OP___ jtwc_io IO081975 18.7000 86.2000 -1 18.7000 86.2000 TC 25 18.7626 86.2578 1 3 318
1975177N19087 1975 48 NI BB NOT_NAMED 1975-06-25 21:00:00 TS 18.8282 86.1393 main 115 105 P________PP___ IO081975 18.8150 86.1275 -1 18.8150 86.1275 TC 25 18.8547 86.1630 1 2 329
1975177N19087 1975 48 NI BB NOT_NAMED 1975-06-26 00:00:00 TS 18.9000 86.1000 main 105 105 O________OO___ jtwc_io IO081975 18.9000 86.1000 -1 18.9000 86.1000 TC 25 18.9000 86.1000 1 1 325
1975177N19087 1975 48 NI BB NOT_NAMED 1975-06-26 03:00:00 TS 18.9074 86.0867 main 105 105 P________PP___ IO081975 18.9150 86.0925 -1 18.9150 86.0925 TC 25 18.8922 86.0752 1 0 0
1975177N19087 1975 48 NI BB NOT_NAMED 1975-06-26 06:00:00 TS 18.8875 86.0925 main 105 105 O________OP___ jtwc_io IO081975 18.9000 86.1000 -1 18.9000 86.1000 TC 25 18.8625 86.0774 1 0 0
1975177N19087 1975 48 NI BB NOT_NAMED 1975-06-26 09:00:00 TS 18.8638 86.0970 main 105 105 P________PP___ IO081975 18.8700 86.1000 -1 18.8700 86.1000 TC 25 18.8515 86.0909 1 0 0
1975177N19087 1975 48 NI BB NOT_NAMED 1975-06-26 12:00:00 TS 18.9000 86.1000 main 105 94 O________OO___ jtwc_io IO081975 18.9000 86.1000 -1 18.9000 86.1000 TC 25 18.9000 86.1000 1 2 0
1975177N19087 1975 48 NI BB NOT_NAMED 1975-06-26 15:00:00 TS 19.0577 86.1017 main 84 64 P________PP___ IO081975 19.0625 86.1075 -1 19.0625 86.1075 TC 25 19.0481 86.0902 1 4 356
1975177N19087 1975 48 NI BB NOT_NAMED 1975-06-26 18:00:00 TS 19.2867 86.0908 main 64 44 O________OP___ jtwc_io IO081975 19.3000 86.1000 -1 19.3000 86.1000 TC 25 19.2600 86.0724 1 5 355
1975177N19087 1975 48 NI BB NOT_NAMED 1975-06-26 21:00:00 TS 19.5290 86.0528 main 44 11 P________PP___ IO081975 19.5350 86.0575 -1 19.5350 86.0575 TC 25 19.5169 86.0433 1 5 351
1975177N19087 1975 48 NI BB NOT_NAMED 1975-06-27 00:00:00 TS 19.8000 86.0000 main 11 0 O________OO___ jtwc_io IO081975 19.8000 86.0000 -1 19.8000 86.0000 TC 25 19.8000 86.0000 1 6 351
1975177N19087 1975 48 NI BB NOT_NAMED 1975-06-27 03:00:00 TS 20.0959 85.9528 main 0 0 P________PP___ IO081975 20.0925 85.9574 -1 20.0925 85.9574 TC 25 20.1028 85.9436 1 6 350
1975177N19087 1975 48 NI BB NOT_NAMED 1975-06-27 06:00:00 TS 20.4075 85.8909 main 0 0 O________OP___ jtwc_io IO081975 20.4000 85.9000 -1 20.4000 85.9000 TC 25 20.4225 85.8727 1 6 347
1975177N19087 1975 48 NI BB NOT_NAMED 1975-06-27 09:00:00 TS 20.7253 85.8018 main 0 0 P________PP___ IO081975 20.7225 85.8075 -1 20.7225 85.8075 TC 25 20.7309 85.7904 1 6 343
1975177N19087 1975 48 NI BB NOT_NAMED 1975-06-27 12:00:00 TS 21.0000 85.7000 main 0 0 O________OO___ jtwc_io IO081975 21.0000 85.7000 -1 21.0000 85.7000 TC 25 21.0000 85.7000 1 5 338
1975177N19087 1975 48 NI BB NOT_NAMED 1975-06-27 15:00:00 TS 21.1753 85.6090 main 0 0 P________PP___ IO081975 21.1725 85.5999 -1 21.1725 85.5999 TC 25 21.1808 85.6271 1 4 331
1975177N19087 1975 48 NI BB NOT_NAMED 1975-06-27 18:00:00 TS 21.3074 85.5148 main 0 0 O________OP___ jtwc_io IO081975 21.3000 85.5000 -1 21.3000 85.5000 TC 25 21.3223 85.5444 1 3 327
1975177N19087 1975 48 NI BB NOT_NAMED 1975-06-27 21:00:00 TS 21.4459 85.4231 main 0 0 P________PP___ IO081975 21.4425 85.4149 -1 21.4425 85.4149 TC 25 21.4526 85.4395 1 4 325
1975177N19087 1975 48 NI BB NOT_NAMED 1975-06-28 00:00:00 TS 21.6000 85.3000 main 0 0 O________OO___ jtwc_io IO081975 21.6000 85.3000 -1 21.6000 85.3000 TC 25 21.6000 85.3000 1 4 320
1975177N19087 1975 48 NI BB NOT_NAMED 1975-06-28 03:00:00 TS 21.7912 85.1173 main 0 0 P________PP___ IO081975 21.7850 85.1225 -1 21.7850 85.1225 TC 25 21.8036 85.1071 1 6 317
1975177N19087 1975 48 NI BB NOT_NAMED 1975-06-28 06:00:00 TS 22.0092 84.8934 main 0 0 O________OP___ jtwc_io IO081975 22.0000 84.9000 -1 22.0000 84.9000 TC 25 22.0277 84.8803 1 6 317
1975177N19087 1975 48 NI BB NOT_NAMED 1975-06-28 09:00:00 TS 22.2543 84.6461 main 0 0 P________PP___ IO081975 22.2500 84.6501 -1 22.2500 84.6501 TC 25 22.2629 84.6383 1 7 317
1975177N19087 1975 48 NI BB NOT_NAMED 1975-06-28 12:00:00 TS 22.5000 84.4000 main 0 0 O________OO___ jtwc_io IO081975 22.5000 84.4000 -1 22.5000 84.4000 TC 25 22.5000 84.4000 1 6 317
1975177N19087 1975 48 NI BB NOT_NAMED 1975-06-28 15:00:00 TS 22.7105 84.1883 main 0 0 P________PP___ IO081975 22.6999 84.1923 -1 22.6999 84.1923 TC 25 22.7315 84.1804 1 6 318
1975177N19087 1975 48 NI BB NOT_NAMED 1975-06-28 18:00:00 TS 22.9192 83.9926 main 0 0 O________OP___ jtwc_io IO081975 22.9000 84.0000 -1 22.9000 84.0000 TC 25 22.9575 83.9777 1 6 321
1975177N19087 1975 48 NI BB NOT_NAMED 1975-06-28 21:00:00 TS 23.1516 83.7972 main 0 0 P________PP___ IO081975 23.1376 83.8027 -1 23.1376 83.8027 TC 25 23.1797 83.7862 1 6 323
1975177N19087 1975 48 NI BB NOT_NAMED 1975-06-29 00:00:00 TS 23.4000 83.6000 main 0 O________OO___ jtwc_io IO081975 23.4000 83.6000 -1 23.4000 83.6000 TC 25 23.4000 83.6000 6 6 324

About IBTrACS Database

This database is a web-friendly format of International Best Track Archive for Climate Stewardship (IBTrACS), a global best track data archive curated by NOAA dating back to 1842.

Updated: 2021-10-08